createdAt,value
2019-05-01T00:00:16.358Z,39.30
2019-05-01T00:03:03.681Z,45.03
2019-05-01T00:05:36.064Z,40.90
2019-05-01T00:08:05.189Z,44.33
2019-05-01T00:10:34.252Z,43.53
2019-05-01T00:13:03.446Z,45.47
2019-05-01T00:15:34.287Z,43.80
2019-05-01T00:18:03.286Z,41.73
2019-05-01T00:20:32.621Z,45.50
2019-05-01T00:23:01.235Z,46.67
2019-05-01T00:25:30.209Z,42.40
2019-05-01T00:27:59.030Z,43.23
2019-05-01T00:30:30.425Z,38.73
2019-05-01T00:32:59.598Z,43.60
2019-05-01T00:35:28.486Z,43.47
2019-05-01T00:37:57.790Z,38.13
2019-05-01T00:40:27.091Z,42.90
2019-05-01T00:42:55.980Z,45.00
2019-05-01T00:45:24.873Z,42.20
2019-05-01T00:47:53.467Z,45.17
2019-05-01T00:50:22.351Z,44.67
2019-05-01T00:52:51.350Z,47.13
2019-05-01T00:55:58.127Z,45.57
2019-05-01T00:58:37.563Z,44.70
2019-05-01T01:01:29.546Z,49.00
2019-05-01T01:03:58.899Z,48.47
2019-05-01T01:06:27.889Z,43.97
2019-05-01T01:08:56.587Z,47.10
2019-05-01T01:11:25.204Z,44.37
2019-05-01T01:13:53.886Z,51.97
2019-05-01T01:16:23.152Z,46.80
2019-05-01T01:18:52.451Z,47.37
2019-05-01T01:21:22.059Z,49.40
2019-05-01T01:23:51.116Z,48.20
2019-05-01T01:26:20.149Z,47.07
2019-05-01T01:28:49.195Z,47.87
2019-05-01T01:31:18.438Z,48.20
2019-05-01T01:33:47.742Z,47.07
2019-05-01T01:36:16.452Z,46.83
2019-05-01T01:38:45.424Z,48.07
2019-05-01T01:41:14.618Z,44.93
2019-05-01T01:44:02.934Z,45.77
2019-05-01T01:46:32.242Z,45.43
2019-05-01T01:49:01.880Z,42.33
2019-05-01T01:51:30.938Z,44.07
2019-05-01T01:53:59.943Z,48.03
2019-05-01T01:56:28.945Z,43.77
2019-05-01T01:58:58.765Z,45.27
2019-05-01T02:02:01.881Z,46.87
2019-05-01T02:04:48.821Z,48.73
2019-05-01T02:07:18.202Z,45.90
2019-05-01T02:09:47.927Z,44.47
2019-05-01T02:12:16.761Z,47.30
2019-05-01T02:14:45.769Z,49.00
2019-05-01T02:17:14.685Z,44.47
2019-05-01T02:19:43.991Z,45.07
2019-05-01T02:22:12.876Z,49.03
2019-05-01T02:24:41.497Z,47.97
2019-05-01T02:27:15.062Z,46.57
2019-05-01T02:29:48.869Z,42.87
2019-05-01T02:32:18.541Z,47.03
2019-05-01T02:34:48.237Z,52.03
2019-05-01T02:37:17.696Z,39.50
2019-05-01T02:39:48.212Z,46.93
2019-05-01T02:42:18.384Z,45.93
2019-05-01T02:44:50.250Z,48.00
2019-05-01T02:47:23.156Z,42.47
2019-05-01T02:50:03.566Z,43.13
2019-05-01T02:52:35.071Z,44.60
2019-05-01T02:55:07.087Z,46.30
2019-05-01T02:57:37.587Z,42.87
2019-05-01T03:00:06.482Z,47.23
2019-05-01T03:02:35.727Z,32.93
2019-05-01T03:05:04.785Z,39.80
2019-05-01T03:07:35.327Z,42.20
2019-05-01T03:10:09.335Z,41.10
2019-05-01T03:12:39.743Z,32.97
2019-05-01T03:15:08.849Z,41.83
2019-05-01T03:17:54.224Z,41.93
2019-05-01T03:20:39.306Z,38.63
2019-05-01T03:23:18.940Z,41.30
2019-05-01T03:25:48.468Z,38.43
2019-05-01T03:28:17.492Z,47.30
2019-05-01T03:30:46.746Z,42.20
2019-05-01T03:33:15.351Z,39.93
2019-05-01T03:35:44.625Z,37.27
2019-05-01T03:38:13.356Z,43.07
2019-05-01T03:40:42.517Z,41.77
2019-05-01T03:43:11.507Z,44.37
2019-05-01T03:45:40.891Z,43.10
2019-05-01T03:48:09.614Z,43.07
2019-05-01T03:50:39.203Z,42.80
2019-05-01T03:53:08.709Z,46.97
2019-05-01T03:55:38.110Z,44.13
2019-05-01T03:58:07.304Z,43.90
2019-05-01T04:01:03.009Z,43.13
2019-05-01T04:03:50.746Z,38.60
2019-05-01T04:06:19.679Z,39.07
2019-05-01T04:08:48.302Z,37.30
2019-05-01T04:11:17.334Z,36.37
2019-05-01T04:13:46.333Z,40.73
2019-05-01T04:16:16.339Z,35.30
2019-05-01T04:18:45.650Z,39.63
2019-05-01T04:21:14.647Z,43.33
2019-05-01T04:23:43.938Z,44.30
2019-05-01T04:26:13.133Z,39.37
2019-05-01T04:28:57.052Z,44.63
2019-05-01T04:31:45.133Z,39.13
2019-05-01T04:34:20.659Z,35.70
2019-05-01T04:36:52.995Z,40.90
2019-05-01T04:39:22.487Z,41.23
2019-05-01T04:41:51.791Z,40.80
2019-05-01T04:44:21.095Z,32.60
2019-05-01T04:46:50.266Z,40.37
2019-05-01T04:49:19.279Z,39.37
2019-05-01T04:51:48.597Z,40.93
2019-05-01T04:54:17.550Z,39.57
2019-05-01T04:56:46.532Z,37.73
2019-05-01T04:59:15.222Z,37.47
2019-05-01T05:01:57.316Z,38.53
2019-05-01T05:04:26.334Z,35.27
2019-05-01T05:06:55.516Z,37.77
2019-05-01T05:09:43.862Z,35.13
2019-05-01T05:12:19.507Z,38.30
2019-05-01T05:14:53.119Z,37.00
2019-05-01T05:17:23.277Z,33.70
2019-05-01T05:19:52.329Z,32.37
2019-05-01T05:22:21.318Z,35.23
2019-05-01T05:24:50.314Z,36.93
2019-05-01T05:27:19.821Z,38.53
2019-05-01T05:29:50.248Z,32.27
2019-05-01T05:32:20.467Z,36.60
2019-05-01T05:34:49.687Z,40.07
2019-05-01T05:37:25.308Z,32.97
2019-05-01T05:39:55.841Z,38.80
2019-05-01T05:42:24.559Z,35.77
2019-05-01T05:44:53.309Z,38.17
2019-05-01T05:47:25.311Z,29.23
2019-05-01T05:49:53.368Z,35.43
2019-05-01T05:52:33.108Z,39.07
2019-05-01T05:55:09.665Z,31.37
2019-05-01T05:57:44.266Z,34.13
2019-05-01T06:00:32.548Z,32.43
2019-05-01T06:03:31.008Z,34.73
2019-05-01T06:06:11.810Z,34.97
2019-05-01T06:08:42.535Z,32.63
2019-05-01T06:11:29.670Z,37.10
2019-05-01T06:14:07.871Z,30.47
2019-05-01T06:16:52.311Z,35.20
2019-05-01T06:19:49.637Z,32.93
2019-05-01T06:22:34.933Z,30.67
2019-05-01T06:25:21.217Z,38.73
2019-05-01T06:27:38.778Z,31.10
2019-05-01T06:30:11.004Z,31.07
2019-05-01T06:32:40.054Z,31.53
2019-05-01T06:35:09.186Z,26.67
2019-05-01T06:37:55.936Z,30.23
2019-05-01T06:40:38.665Z,32.13
2019-05-01T06:43:12.056Z,34.87
2019-05-01T06:45:46.861Z,33.87
2019-05-01T06:48:17.788Z,33.47
2019-05-01T06:50:53.152Z,30.77
2019-05-01T06:53:22.803Z,32.70
2019-05-01T06:55:51.703Z,29.63
2019-05-01T06:58:21.843Z,32.60
2019-05-01T07:00:51.711Z,38.20
2019-05-01T07:03:20.973Z,33.40
2019-05-01T07:05:54.374Z,31.07
2019-05-01T07:08:24.676Z,34.27
2019-05-01T07:10:51.340Z,36.60
2019-05-01T07:13:20.469Z,30.07
2019-05-01T07:15:49.464Z,30.67
2019-05-01T07:18:18.798Z,30.13
2019-05-01T07:20:53.479Z,31.43
2019-05-01T07:23:23.280Z,33.10
2019-05-01T07:25:51.973Z,32.43
2019-05-01T07:28:21.293Z,30.17
2019-05-01T07:30:59.735Z,30.27
2019-05-01T07:33:28.812Z,29.03
2019-05-01T07:35:58.208Z,29.43
2019-05-01T07:38:26.920Z,28.90
2019-05-01T07:40:58.916Z,26.43
2019-05-01T07:43:45.363Z,26.47
2019-05-01T07:46:25.864Z,30.40
2019-05-01T07:48:54.660Z,28.27
2019-05-01T07:51:23.897Z,27.57
2019-05-01T07:53:52.905Z,23.40
2019-05-01T07:56:22.803Z,23.77
2019-05-01T07:58:53.418Z,18.53
2019-05-01T08:01:41.597Z,22.87
2019-05-01T08:04:13.746Z,28.17
2019-05-01T08:06:40.967Z,22.10
2019-05-01T08:09:11.298Z,23.73
2019-05-01T08:11:44.140Z,19.00
2019-05-01T08:14:12.011Z,24.30
2019-05-01T08:16:42.462Z,20.70
2019-05-01T08:19:18.428Z,22.07
2019-05-01T08:22:01.216Z,19.10
2019-05-01T08:24:27.523Z,16.57
2019-05-01T08:26:56.505Z,19.90
2019-05-01T08:29:50.566Z,15.17
2019-05-01T08:32:44.779Z,16.40
2019-05-01T08:35:16.752Z,15.47
2019-05-01T08:37:45.658Z,13.63
2019-05-01T08:40:18.722Z,16.10
2019-05-01T08:42:45.059Z,16.97
2019-05-01T08:45:42.552Z,17.60
2019-05-01T08:48:22.165Z,20.10
2019-05-01T08:50:54.591Z,18.80
2019-05-01T08:53:22.047Z,18.07
2019-05-01T08:55:52.116Z,19.97
2019-05-01T08:58:21.444Z,16.40
2019-05-01T09:00:50.045Z,19.07
2019-05-01T09:03:20.356Z,17.43
2019-05-01T09:05:52.188Z,16.93
2019-05-01T09:08:19.729Z,18.83
2019-05-01T09:10:49.781Z,15.63
2019-05-01T09:13:23.176Z,16.63
2019-05-01T09:15:49.458Z,13.03
2019-05-01T09:18:18.934Z,14.13
2019-05-01T09:20:49.588Z,13.13
2019-05-01T09:23:18.503Z,13.73
2019-05-01T09:25:56.294Z,13.20
2019-05-01T09:28:29.418Z,14.37
2019-05-01T09:31:02.163Z,16.03
2019-05-01T09:33:32.073Z,13.67
2019-05-01T09:36:01.515Z,15.73
2019-05-01T09:38:30.615Z,13.17
2019-05-01T09:40:59.214Z,13.67
2019-05-01T09:43:31.017Z,17.20
2019-05-01T09:45:59.435Z,13.90
2019-05-01T09:48:28.327Z,13.47
2019-05-01T09:51:06.718Z,9.73
2019-05-01T09:53:43.003Z,11.60
2019-05-01T09:56:15.493Z,10.33
2019-05-01T09:58:44.120Z,13.20
2019-05-01T10:01:12.830Z,11.10
2019-05-01T10:03:44.604Z,9.90
2019-05-01T10:06:12.759Z,9.20
2019-05-01T10:08:43.009Z,12.20
2019-05-01T10:11:11.900Z,13.13
2019-05-01T10:13:40.873Z,11.60
2019-05-01T10:16:09.596Z,10.20
2019-05-01T10:18:38.244Z,9.27
2019-05-01T10:21:06.909Z,9.10
2019-05-01T10:23:35.847Z,9.43
2019-05-01T10:26:06.849Z,8.57
2019-05-01T10:28:50.177Z,8.27
2019-05-01T10:31:34.320Z,8.80
2019-05-01T10:34:12.521Z,8.83
2019-05-01T10:36:49.749Z,8.07
2019-05-01T10:39:19.742Z,9.37
2019-05-01T10:41:47.912Z,7.13
2019-05-01T10:44:16.552Z,8.10
2019-05-01T10:46:45.428Z,8.10
2019-05-01T10:49:14.335Z,8.20
2019-05-01T10:51:42.988Z,8.10
2019-05-01T10:54:11.704Z,8.67
2019-05-01T10:56:40.349Z,9.30
2019-05-01T10:59:08.964Z,8.00
2019-05-01T11:01:53.732Z,7.60
2019-05-01T11:04:22.718Z,8.50
2019-05-01T11:06:52.032Z,8.50
2019-05-01T11:09:20.666Z,7.17
2019-05-01T11:11:49.596Z,9.30
2019-05-01T11:14:18.234Z,8.20
2019-05-01T11:16:47.648Z,8.03
2019-05-01T11:19:16.576Z,8.33
2019-05-01T11:21:46.416Z,8.77
2019-05-01T11:24:15.042Z,7.97
2019-05-01T11:26:43.966Z,8.23
2019-05-01T11:29:12.659Z,8.20
2019-05-01T11:31:54.108Z,8.80
2019-05-01T11:34:48.739Z,8.47
2019-05-01T11:37:42.012Z,9.50
2019-05-01T11:40:30.148Z,7.77
2019-05-01T11:42:59.134Z,8.67
2019-05-01T11:45:27.834Z,9.37
2019-05-01T11:47:56.709Z,9.27
2019-05-01T11:50:25.718Z,9.73
2019-05-01T11:52:54.707Z,10.83
2019-05-01T11:55:23.385Z,9.57
2019-05-01T11:57:52.378Z,13.77
2019-05-01T12:00:21.694Z,10.00
2019-05-01T12:02:50.459Z,9.50
2019-05-01T12:05:19.668Z,10.73
2019-05-01T12:07:48.583Z,11.63
2019-05-01T12:10:18.077Z,11.17
2019-05-01T12:12:46.869Z,10.63
2019-05-01T12:15:16.486Z,12.23
2019-05-01T12:17:49.394Z,10.50
2019-05-01T12:20:19.535Z,10.37
2019-05-01T12:22:51.248Z,11.13
2019-05-01T12:25:19.257Z,12.23
2019-05-01T12:27:48.113Z,11.67
2019-05-01T12:30:17.904Z,11.40
2019-05-01T12:32:46.897Z,11.67
2019-05-01T12:35:16.030Z,11.87
2019-05-01T12:37:45.135Z,10.43
2019-05-01T12:40:16.224Z,11.27
2019-05-01T12:42:45.529Z,8.73
2019-05-01T12:45:15.958Z,11.13
2019-05-01T12:47:48.129Z,11.47
2019-05-01T12:50:17.225Z,14.13
2019-05-01T12:53:03.958Z,16.03
2019-05-01T12:55:50.841Z,10.37
2019-05-01T12:58:19.480Z,11.23
2019-05-01T13:00:50.735Z,12.20
2019-05-01T13:03:19.771Z,11.70
2019-05-01T13:05:48.869Z,11.77
2019-05-01T13:08:17.874Z,10.93
2019-05-01T13:10:47.162Z,9.80
2019-05-01T13:13:16.362Z,12.73
2019-05-01T13:15:45.011Z,11.57
2019-05-01T13:18:13.631Z,8.50
2019-05-01T13:20:42.725Z,9.07
2019-05-01T13:23:11.605Z,13.17
2019-05-01T13:25:40.717Z,14.60
2019-05-01T13:28:35.107Z,12.17
2019-05-01T13:31:19.764Z,13.03
2019-05-01T13:33:48.964Z,11.23
2019-05-01T13:36:17.855Z,13.53
2019-05-01T13:38:46.757Z,16.13
2019-05-01T13:41:15.737Z,13.73
2019-05-01T13:43:44.645Z,15.13
2019-05-01T13:46:13.524Z,14.43
2019-05-01T13:48:42.254Z,16.17
2019-05-01T13:51:11.302Z,17.90
2019-05-01T13:53:40.200Z,15.60
2019-05-01T13:56:09.197Z,16.07
2019-05-01T13:58:38.186Z,18.97
2019-05-01T14:01:06.947Z,13.77
2019-05-01T14:03:35.591Z,13.73
2019-05-01T14:06:04.654Z,16.40
2019-05-01T14:08:33.269Z,12.37
2019-05-01T14:11:02.237Z,16.37
2019-05-01T14:13:31.130Z,16.77
2019-05-01T14:16:00.119Z,15.57
2019-05-01T14:18:29.019Z,21.00
2019-05-01T14:21:32.103Z,20.03
2019-05-01T14:24:13.179Z,16.53
2019-05-01T14:26:41.807Z,21.40
2019-05-01T14:29:11.067Z,17.80
2019-05-01T14:31:39.958Z,18.07
2019-05-01T14:34:08.955Z,22.57
2019-05-01T14:36:37.857Z,20.13
2019-05-01T14:39:07.469Z,20.50
2019-05-01T14:41:36.230Z,22.80
2019-05-01T14:44:05.251Z,22.23
2019-05-01T14:46:34.204Z,20.63
2019-05-01T14:49:03.117Z,19.90
2019-05-01T14:51:32.138Z,21.67
2019-05-01T14:54:01.406Z,23.70
2019-05-01T14:56:30.652Z,23.07
2019-05-01T14:58:59.268Z,23.50
2019-05-01T15:01:27.864Z,20.43
2019-05-01T15:03:56.778Z,18.73
2019-05-01T15:06:25.478Z,17.30
2019-05-01T15:08:54.092Z,20.80
2019-05-01T15:11:22.810Z,20.37
2019-05-01T15:14:03.603Z,19.53
2019-05-01T15:16:47.960Z,26.63
2019-05-01T15:19:21.648Z,22.30
2019-05-01T15:21:50.860Z,17.40
2019-05-01T15:24:20.108Z,20.93
2019-05-01T15:26:49.050Z,20.50
2019-05-01T15:29:17.796Z,20.07
2019-05-01T15:31:46.731Z,21.93
2019-05-01T15:34:15.619Z,21.27
2019-05-01T15:36:44.617Z,21.00
2019-05-01T15:39:20.439Z,20.03
2019-05-01T15:42:08.209Z,14.43
2019-05-01T15:44:37.763Z,15.50
2019-05-01T15:47:06.449Z,18.03
2019-05-01T15:49:35.490Z,18.10
2019-05-01T15:52:04.558Z,16.57
2019-05-01T15:54:33.190Z,18.93
2019-05-01T15:57:01.811Z,21.20
2019-05-01T15:59:31.310Z,20.27
2019-05-01T16:02:00.253Z,17.20
2019-05-01T16:04:28.879Z,20.00
2019-05-01T16:06:57.830Z,12.17
2019-05-01T16:09:26.836Z,20.27
2019-05-01T16:12:14.765Z,19.47
2019-05-01T16:14:46.239Z,20.93
2019-05-01T16:17:15.014Z,22.10
2019-05-01T16:19:44.310Z,18.23
2019-05-01T16:22:13.298Z,18.77
2019-05-01T16:24:42.007Z,19.00
2019-05-01T16:27:11.532Z,24.50
2019-05-01T16:29:40.380Z,15.33
2019-05-01T16:32:09.377Z,20.40
2019-05-01T16:34:38.031Z,19.63
2019-05-01T16:37:06.727Z,21.40
2019-05-01T16:39:54.685Z,19.30
2019-05-01T16:42:29.607Z,16.63
2019-05-01T16:44:58.517Z,12.87
2019-05-01T16:47:27.395Z,19.57
2019-05-01T16:49:56.268Z,16.77
2019-05-01T16:52:29.995Z,18.83
2019-05-01T16:54:59.652Z,16.77
2019-05-01T16:57:28.409Z,19.67
2019-05-01T16:59:57.387Z,18.13
2019-05-01T17:02:41.541Z,18.37
2019-05-01T17:05:21.661Z,20.30
2019-05-01T17:08:00.673Z,16.57
2019-05-01T17:10:33.512Z,17.33
2019-05-01T17:13:02.700Z,20.53
2019-05-01T17:15:37.920Z,17.83
2019-05-01T17:18:06.619Z,18.60
2019-05-01T17:20:35.519Z,14.90
2019-05-01T17:23:05.685Z,13.00
2019-05-01T17:25:34.947Z,17.03
2019-05-01T17:28:08.283Z,15.50
2019-05-01T17:30:40.201Z,13.93
2019-05-01T17:33:09.198Z,16.93
2019-05-01T17:35:41.833Z,14.80
2019-05-01T17:38:08.819Z,14.73
2019-05-01T17:40:37.538Z,13.10
2019-05-01T17:43:08.126Z,16.00
2019-05-01T17:45:36.822Z,12.37
2019-05-01T17:48:05.548Z,17.13
2019-05-01T17:50:34.167Z,13.33
2019-05-01T17:53:03.188Z,11.77
2019-05-01T17:55:31.799Z,12.27
2019-05-01T17:58:00.415Z,15.97
2019-05-01T18:00:40.693Z,11.80
2019-05-01T18:03:27.458Z,12.07
2019-05-01T18:06:10.922Z,12.67
2019-05-01T18:08:39.955Z,12.47
2019-05-01T18:11:09.242Z,7.47
2019-05-01T18:13:39.264Z,13.20
2019-05-01T18:16:07.967Z,8.90
2019-05-01T18:18:36.645Z,8.43
2019-05-01T18:21:05.441Z,10.57
2019-05-01T18:23:53.173Z,11.30
2019-05-01T18:26:45.045Z,9.20
2019-05-01T18:29:26.119Z,14.67
2019-05-01T18:31:54.850Z,11.20
2019-05-01T18:34:23.756Z,10.07
2019-05-01T18:36:59.632Z,10.63
2019-05-01T18:39:33.146Z,8.00
2019-05-01T18:42:04.559Z,7.50
2019-05-01T18:44:33.478Z,8.30
2019-05-01T18:47:02.374Z,5.77
2019-05-01T18:49:30.987Z,8.83
2019-05-01T18:52:00.232Z,9.23
2019-05-01T18:54:30.440Z,14.07
2019-05-01T18:56:59.588Z,6.53
2019-05-01T18:59:28.202Z,6.90
2019-05-01T19:01:57.223Z,12.37
2019-05-01T19:04:26.117Z,9.10
2019-05-01T19:06:55.317Z,3.97
2019-05-01T19:09:30.181Z,7.13
2019-05-01T19:11:55.576Z,9.93
2019-05-01T19:14:28.823Z,7.00
2019-05-01T19:16:55.189Z,5.50
2019-05-01T19:19:24.480Z,7.93
2019-05-01T19:21:53.235Z,7.03
2019-05-01T19:24:22.031Z,8.50
2019-05-01T19:26:50.988Z,5.37
2019-05-01T19:29:19.592Z,8.77
2019-05-01T19:31:48.565Z,6.37
2019-05-01T19:34:17.315Z,6.80
2019-05-01T19:36:46.917Z,7.73
2019-05-01T19:39:15.607Z,11.43
2019-05-01T19:41:49.261Z,10.93
2019-05-01T19:44:18.775Z,10.90
2019-05-01T19:46:45.092Z,8.83
2019-05-01T19:49:14.063Z,9.53
2019-05-01T19:51:43.038Z,10.90
2019-05-01T19:54:12.282Z,11.93
2019-05-01T19:56:40.905Z,11.13
2019-05-01T19:59:10.445Z,11.73
2019-05-01T20:01:44.657Z,13.33
2019-05-01T20:04:13.270Z,10.77
2019-05-01T20:06:40.676Z,11.27
2019-05-01T20:09:09.733Z,10.87
2019-05-01T20:11:38.692Z,12.30
2019-05-01T20:14:07.295Z,10.47
2019-05-01T20:16:36.309Z,11.10
2019-05-01T20:19:07.119Z,11.87
2019-05-01T20:21:36.081Z,11.80
2019-05-01T20:24:09.419Z,12.90
2019-05-01T20:26:35.215Z,10.57
2019-05-01T20:29:04.289Z,7.87
2019-05-01T20:31:33.051Z,8.53
2019-05-01T20:34:01.611Z,10.33
2019-05-01T20:36:30.562Z,13.63
2019-05-01T20:38:59.569Z,10.87
2019-05-01T20:41:28.445Z,9.20
2019-05-01T20:43:57.101Z,10.13
2019-05-01T20:46:27.983Z,11.17
2019-05-01T20:49:00.937Z,10.43
2019-05-01T20:51:27.516Z,8.53
2019-05-01T20:53:56.378Z,10.43
2019-05-01T20:56:39.196Z,11.87
2019-05-01T20:59:08.090Z,9.67
2019-05-01T21:01:36.980Z,14.17
2019-05-01T21:04:19.357Z,11.30
2019-05-01T21:07:07.326Z,10.03
2019-05-01T21:09:47.238Z,8.50
2019-05-01T21:12:11.252Z,9.70
2019-05-01T21:14:44.901Z,9.10
2019-05-01T21:17:13.791Z,15.90
2019-05-01T21:19:44.660Z,10.93
2019-05-01T21:22:14.275Z,8.03
2019-05-01T21:24:44.390Z,9.83
2019-05-01T21:27:13.931Z,14.60
2019-05-01T21:29:44.521Z,8.60
2019-05-01T21:32:18.411Z,15.37
2019-05-01T21:34:44.200Z,16.10
2019-05-01T21:37:12.813Z,9.67
2019-05-01T21:39:43.615Z,14.33
2019-05-01T21:42:15.926Z,9.43
2019-05-01T21:44:43.635Z,13.07
2019-05-01T21:47:13.930Z,11.40
2019-05-01T21:49:43.320Z,11.37
2019-05-01T21:52:13.491Z,8.23
2019-05-01T21:54:43.301Z,12.13
2019-05-01T21:57:17.172Z,5.47
2019-05-01T21:59:44.706Z,11.40
2019-05-01T22:02:13.966Z,9.67
2019-05-01T22:04:42.962Z,12.53
2019-05-01T22:07:11.617Z,12.70
2019-05-01T22:09:45.591Z,11.90
2019-05-01T22:12:14.394Z,8.83
2019-05-01T22:14:53.982Z,16.70
2019-05-01T22:17:51.648Z,11.63
2019-05-01T22:20:27.619Z,10.33
2019-05-01T22:23:01.054Z,11.27
2019-05-01T22:25:36.884Z,8.77
2019-05-01T22:28:30.224Z,15.80
2019-05-01T22:31:11.995Z,11.27
2019-05-01T22:33:41.404Z,9.93
2019-05-01T22:36:10.674Z,10.23
2019-05-01T22:38:39.236Z,9.87
2019-05-01T22:41:12.223Z,8.33
2019-05-01T22:43:41.491Z,9.57
2019-05-01T22:46:17.203Z,9.77
2019-05-01T22:48:46.119Z,10.43
2019-05-01T22:51:21.691Z,13.73
2019-05-01T22:53:54.609Z,13.23
2019-05-01T22:56:24.556Z,12.50
2019-05-01T22:58:53.593Z,13.27
2019-05-01T23:01:23.389Z,17.13
2019-05-01T23:04:01.129Z,13.70
2019-05-01T23:06:30.691Z,10.97
2019-05-01T23:08:59.596Z,12.00
2019-05-01T23:11:30.494Z,13.17
2019-05-01T23:13:59.112Z,16.67
2019-05-01T23:16:31.959Z,10.70
2019-05-01T23:19:00.616Z,13.70
2019-05-01T23:21:29.882Z,11.17
2019-05-01T23:24:01.883Z,10.13
2019-05-01T23:26:29.526Z,9.10
2019-05-01T23:28:58.477Z,11.13
2019-05-01T23:31:27.599Z,11.93
2019-05-01T23:33:56.518Z,11.13
2019-05-01T23:36:25.788Z,7.20
2019-05-01T23:38:54.416Z,11.80
2019-05-01T23:41:44.747Z,11.63
2019-05-01T23:43:53.697Z,10.53
2019-05-01T23:46:22.992Z,11.50
2019-05-01T23:48:51.882Z,11.43
2019-05-01T23:51:23.669Z,11.83
2019-05-01T23:53:52.128Z,11.17
2019-05-01T23:56:21.042Z,11.63
2019-05-01T23:58:49.915Z,13.60
